createdAt,value
2023-06-10T00:00:55.121Z,247.06
2023-06-10T00:01:55.150Z,246.78
2023-06-10T00:02:55.232Z,248.33
2023-06-10T00:03:55.345Z,247.68
2023-06-10T00:04:55.325Z,248.37
2023-06-10T00:05:55.272Z,246.97
2023-06-10T00:06:55.279Z,246.60
2023-06-10T00:07:55.299Z,246.70
2023-06-10T00:08:55.300Z,246.80
2023-06-10T00:09:55.312Z,247.23
2023-06-10T00:10:55.318Z,246.74
2023-06-10T00:11:55.333Z,247.23
2023-06-10T00:12:55.332Z,247.65
2023-06-10T00:13:55.338Z,248.97
2023-06-10T00:14:55.334Z,249.16
2023-06-10T00:15:55.390Z,248.34
2023-06-10T00:16:55.334Z,247.89
2023-06-10T00:17:55.383Z,248.43
2023-06-10T00:18:55.347Z,247.57
2023-06-10T00:19:55.342Z,246.95
2023-06-10T00:20:55.365Z,246.79
2023-06-10T00:21:55.356Z,248.88
2023-06-10T00:22:55.360Z,246.53
2023-06-10T00:23:55.414Z,247.30
2023-06-10T00:24:55.403Z,249.03
2023-06-10T00:25:55.412Z,247.13
2023-06-10T00:26:55.402Z,247.18
2023-06-10T00:27:55.421Z,246.00
2023-06-10T00:28:55.415Z,246.72
2023-06-10T00:29:55.409Z,246.15
2023-06-10T00:30:55.422Z,246.80
2023-06-10T00:31:55.456Z,248.40
2023-06-10T00:32:55.494Z,248.90
2023-06-10T00:33:55.436Z,247.40
2023-06-10T00:34:55.443Z,246.59
2023-06-10T00:35:55.473Z,245.70
2023-06-10T00:36:55.485Z,246.79
2023-06-10T00:37:55.537Z,246.31
2023-06-10T00:38:55.539Z,247.14
2023-06-10T00:39:55.554Z,247.57
2023-06-10T00:40:55.581Z,246.72
2023-06-10T00:41:55.614Z,249.15
2023-06-10T00:42:55.642Z,245.94
2023-06-10T00:43:55.656Z,246.06
2023-06-10T00:44:55.689Z,247.80
2023-06-10T00:45:55.776Z,247.47
2023-06-10T00:46:55.731Z,248.24
2023-06-10T00:47:55.833Z,246.35
2023-06-10T00:48:55.787Z,245.15
2023-06-10T00:49:55.825Z,247.06
2023-06-10T00:50:55.848Z,244.32
2023-06-10T00:51:55.869Z,248.26
2023-06-10T00:52:56.067Z,246.91
2023-06-10T00:53:55.925Z,245.85
2023-06-10T00:54:55.949Z,246.95
2023-06-10T00:55:55.983Z,247.57
2023-06-10T00:56:56.002Z,247.23
2023-06-10T00:57:56.037Z,248.38
2023-06-10T00:58:56.052Z,245.63
2023-06-10T00:59:56.095Z,246.26
2023-06-10T01:00:56.137Z,247.21
2023-06-10T01:01:56.142Z,246.12
2023-06-10T01:02:56.307Z,246.24
2023-06-10T01:03:56.214Z,246.10
2023-06-10T01:04:56.253Z,248.06
2023-06-10T01:05:56.260Z,247.08
2023-06-10T01:06:56.307Z,246.52
2023-06-10T01:07:56.334Z,247.40
2023-06-10T01:08:56.339Z,247.45
2023-06-10T01:09:56.357Z,247.64
2023-06-10T01:10:56.356Z,247.00
2023-06-10T01:11:56.357Z,246.64
2023-06-10T01:12:56.364Z,246.91
2023-06-10T01:13:56.351Z,245.98
2023-06-10T01:14:56.388Z,246.59
2023-06-10T01:15:56.381Z,247.00
2023-06-10T01:16:56.419Z,245.90
2023-06-10T01:17:56.440Z,248.29
2023-06-10T01:18:56.383Z,248.38
2023-06-10T01:19:56.424Z,248.05
2023-06-10T01:20:56.403Z,247.40
2023-06-10T01:21:56.423Z,247.48
2023-06-10T01:22:56.430Z,246.84
2023-06-10T01:23:56.467Z,247.77
2023-06-10T01:24:56.443Z,247.88
2023-06-10T01:25:56.448Z,247.66
2023-06-10T01:26:56.454Z,246.92
2023-06-10T01:27:56.474Z,246.39
2023-06-10T01:28:56.466Z,247.28
2023-06-10T01:29:56.483Z,246.16
2023-06-10T01:30:56.500Z,246.43
2023-06-10T01:31:56.494Z,246.66
2023-06-10T01:32:56.549Z,247.72
2023-06-10T01:33:56.516Z,246.06
2023-06-10T01:34:56.537Z,244.43
2023-06-10T01:35:56.543Z,247.19
2023-06-10T01:36:56.554Z,246.69
2023-06-10T01:37:56.566Z,247.02
2023-06-10T01:38:56.574Z,247.09
2023-06-10T01:39:56.574Z,247.12
2023-06-10T01:40:56.581Z,246.16
2023-06-10T01:41:56.595Z,247.44
2023-06-10T01:42:56.605Z,246.43
2023-06-10T01:43:56.615Z,246.74
2023-06-10T01:44:56.620Z,246.95
2023-06-10T01:45:56.638Z,246.32
2023-06-10T01:46:56.850Z,246.50
2023-06-10T01:47:56.706Z,246.72
2023-06-10T01:48:56.681Z,246.59
2023-06-10T01:49:56.669Z,247.65
2023-06-10T01:50:56.674Z,246.73
2023-06-10T01:51:56.711Z,247.32
2023-06-10T01:52:56.698Z,247.43
2023-06-10T01:53:56.692Z,247.33
2023-06-10T01:54:56.715Z,248.27
2023-06-10T01:55:56.718Z,246.64
2023-06-10T01:56:56.733Z,247.05
2023-06-10T01:57:56.758Z,246.60
2023-06-10T01:58:56.747Z,246.73
2023-06-10T01:59:56.769Z,246.86
2023-06-10T02:00:56.851Z,247.10
2023-06-10T02:01:56.822Z,247.14
2023-06-10T02:02:56.839Z,246.82
2023-06-10T02:03:56.848Z,247.32
2023-06-10T02:04:56.820Z,245.21
2023-06-10T02:05:56.823Z,247.63
2023-06-10T02:06:56.817Z,246.14
2023-06-10T02:07:56.821Z,247.07
2023-06-10T02:08:56.831Z,247.67
2023-06-10T02:09:56.834Z,247.48
2023-06-10T02:10:56.827Z,246.17
2023-06-10T02:11:56.847Z,247.48
2023-06-10T02:12:56.849Z,244.84
2023-06-10T02:13:56.838Z,246.30
2023-06-10T02:14:56.865Z,246.93
2023-06-10T02:15:56.875Z,245.49
2023-06-10T02:16:56.960Z,247.15
2023-06-10T02:17:56.969Z,247.75
2023-06-10T02:18:56.936Z,246.98
2023-06-10T02:19:56.969Z,246.57
2023-06-10T02:20:57.016Z,246.54
2023-06-10T02:21:57.052Z,244.38
2023-06-10T02:22:57.092Z,246.55
2023-06-10T02:23:57.160Z,247.23
2023-06-10T02:24:57.142Z,246.99
2023-06-10T02:25:57.179Z,246.94
2023-06-10T02:26:57.194Z,245.53
2023-06-10T02:27:57.226Z,246.25
2023-06-10T02:28:57.266Z,245.97
2023-06-10T02:29:57.272Z,246.01
2023-06-10T02:30:57.279Z,246.11
2023-06-10T02:31:57.343Z,247.26
2023-06-10T02:32:57.409Z,245.63
2023-06-10T02:33:57.327Z,247.74
2023-06-10T02:34:57.342Z,246.39
2023-06-10T02:35:57.345Z,247.01
2023-06-10T02:36:57.350Z,246.88
2023-06-10T02:37:57.363Z,244.97
2023-06-10T02:38:57.370Z,245.15
2023-06-10T02:39:57.391Z,245.55
2023-06-10T02:40:57.388Z,245.55
2023-06-10T02:41:57.417Z,246.01
2023-06-10T02:42:57.423Z,248.47
2023-06-10T02:43:57.434Z,246.80
2023-06-10T02:44:57.437Z,247.06
2023-06-10T02:45:57.542Z,246.15
2023-06-10T02:46:57.478Z,246.27
2023-06-10T02:47:57.532Z,246.28
2023-06-10T02:48:57.507Z,246.91
2023-06-10T02:49:57.502Z,247.27
2023-06-10T02:50:57.526Z,245.28
2023-06-10T02:51:57.523Z,246.22
2023-06-10T02:52:57.545Z,243.14
2023-06-10T02:53:57.531Z,234.47
2023-06-10T02:54:57.559Z,225.95
2023-06-10T02:55:57.562Z,222.48
2023-06-10T02:56:57.560Z,218.03
2023-06-10T02:57:57.594Z,213.71
2023-06-10T02:58:57.600Z,207.74
2023-06-10T02:59:57.617Z,205.29
2023-06-10T03:00:57.651Z,202.44
2023-06-10T03:01:57.718Z,197.73
2023-06-10T03:02:57.795Z,194.90
2023-06-10T03:03:57.838Z,191.31
2023-06-10T03:04:57.815Z,188.56
2023-06-10T03:05:57.961Z,185.20
2023-06-10T03:06:58.006Z,185.67
2023-06-10T03:07:58.078Z,180.16
2023-06-10T03:08:58.197Z,174.73
2023-06-10T03:09:58.215Z,174.66
2023-06-10T03:10:58.296Z,172.61
2023-06-10T03:11:58.377Z,170.45
2023-06-10T03:12:58.473Z,165.20
2023-06-10T03:13:58.504Z,165.35
2023-06-10T03:14:58.623Z,164.46
2023-06-10T03:15:58.699Z,162.58
2023-06-10T03:16:58.771Z,158.06
2023-06-10T03:17:58.863Z,156.11
2023-06-10T03:18:58.884Z,156.14
2023-06-10T03:19:58.884Z,154.55
2023-06-10T03:20:58.906Z,155.62
2023-06-10T03:21:58.919Z,153.56
2023-06-10T03:22:58.954Z,150.22
2023-06-10T03:23:59.032Z,149.18
2023-06-10T03:24:59.006Z,149.39
2023-06-10T03:25:59.044Z,147.66
2023-06-10T03:26:59.089Z,146.42
2023-06-10T03:27:59.115Z,144.18
2023-06-10T03:28:59.139Z,145.43
2023-06-10T03:29:59.174Z,141.18
2023-06-10T03:30:59.209Z,139.14
2023-06-10T03:31:59.310Z,139.00
2023-06-10T03:32:59.290Z,138.94
2023-06-10T03:33:59.322Z,138.92
2023-06-10T03:34:59.345Z,137.12
2023-06-10T03:35:59.342Z,135.23
2023-06-10T03:36:59.452Z,132.72
2023-06-10T03:37:59.420Z,133.02
2023-06-10T03:38:59.436Z,131.58
2023-06-10T03:39:59.463Z,130.67
2023-06-10T03:40:59.503Z,130.45
2023-06-10T03:41:59.522Z,130.43
2023-06-10T03:42:59.568Z,129.18
2023-06-10T03:43:59.598Z,129.37
2023-06-10T03:44:59.618Z,129.80
2023-06-10T03:45:59.723Z,130.17
2023-06-10T03:46:59.683Z,129.37
2023-06-10T03:47:59.718Z,129.75
2023-06-10T03:48:59.733Z,130.02
2023-06-10T03:49:59.747Z,130.42
2023-06-10T03:50:59.783Z,133.28
2023-06-10T03:51:59.814Z,130.39
2023-06-10T03:52:59.853Z,132.38
2023-06-10T03:53:59.872Z,131.12
2023-06-10T03:54:59.912Z,130.56
2023-06-10T03:55:59.931Z,130.46
2023-06-10T03:56:59.949Z,129.29
2023-06-10T03:57:59.985Z,130.21
2023-06-10T03:59:00.032Z,129.17
2023-06-10T04:00:00.054Z,131.03
2023-06-10T04:01:00.091Z,131.67
2023-06-10T04:02:00.250Z,133.35
2023-06-10T04:03:00.185Z,132.40
2023-06-10T04:04:00.202Z,135.28
2023-06-10T04:05:00.202Z,136.01
2023-06-10T04:06:00.250Z,137.48
2023-06-10T04:07:00.253Z,136.06
2023-06-10T04:08:00.287Z,137.54
2023-06-10T04:09:00.335Z,138.41
2023-06-10T04:10:00.406Z,137.82
2023-06-10T04:11:00.485Z,137.15
2023-06-10T04:12:00.536Z,137.66
2023-06-10T04:13:00.614Z,137.11
2023-06-10T04:14:00.687Z,136.95
2023-06-10T04:15:00.753Z,136.49
2023-06-10T04:16:00.820Z,135.79
2023-06-10T04:17:00.940Z,135.78
2023-06-10T04:18:01.037Z,137.01
2023-06-10T04:19:01.031Z,136.03
2023-06-10T04:20:01.118Z,137.87
2023-06-10T04:21:01.191Z,137.64
2023-06-10T04:22:01.241Z,139.31
2023-06-10T04:23:01.320Z,138.74
2023-06-10T04:24:01.411Z,140.57
2023-06-10T04:25:01.467Z,140.68
2023-06-10T04:26:01.495Z,140.75
2023-06-10T04:27:01.541Z,140.87
2023-06-10T04:28:01.561Z,141.17
2023-06-10T04:29:01.602Z,143.62
2023-06-10T04:30:01.628Z,147.03
2023-06-10T04:31:01.677Z,145.19
2023-06-10T04:32:01.725Z,146.57
2023-06-10T04:33:01.783Z,148.02
2023-06-10T04:34:01.756Z,147.92
2023-06-10T04:35:01.800Z,147.47
2023-06-10T04:36:01.828Z,149.56
2023-06-10T04:37:01.856Z,149.77
2023-06-10T04:38:01.893Z,150.44
2023-06-10T04:39:01.917Z,150.83
2023-06-10T04:40:01.941Z,150.77
2023-06-10T04:41:01.977Z,153.06
2023-06-10T04:42:02.009Z,154.02
2023-06-10T04:43:02.088Z,153.63
2023-06-10T04:44:02.148Z,153.31
2023-06-10T04:45:02.215Z,155.39
2023-06-10T04:46:02.286Z,154.87
2023-06-10T04:47:02.418Z,153.70
2023-06-10T04:48:02.464Z,155.97
2023-06-10T04:49:02.515Z,155.48
2023-06-10T04:50:02.578Z,155.58
2023-06-10T04:51:02.660Z,157.31
2023-06-10T04:52:02.743Z,156.43
2023-06-10T04:53:02.777Z,156.55
2023-06-10T04:54:02.802Z,156.78
2023-06-10T04:55:02.820Z,157.56
2023-06-10T04:56:02.857Z,158.72
2023-06-10T04:57:02.895Z,161.00
2023-06-10T04:58:02.937Z,159.63
2023-06-10T04:59:03.007Z,158.83
2023-06-10T05:00:02.995Z,161.55
2023-06-10T05:01:03.094Z,161.51
2023-06-10T05:02:03.152Z,161.37
2023-06-10T05:03:03.244Z,161.61
2023-06-10T05:04:03.220Z,162.32
2023-06-10T05:05:03.152Z,161.52
2023-06-10T05:06:03.188Z,161.77
2023-06-10T05:07:03.228Z,163.93
2023-06-10T05:08:04.920Z,163.58
2023-06-10T05:09:03.308Z,163.88
2023-06-10T05:10:03.344Z,163.88
2023-06-10T05:11:03.362Z,165.25
2023-06-10T05:12:03.411Z,166.20
2023-06-10T05:13:03.437Z,165.90
2023-06-10T05:14:03.477Z,164.85
2023-06-10T05:15:03.565Z,168.43
2023-06-10T05:16:03.556Z,165.83
2023-06-10T05:17:03.593Z,164.38
2023-06-10T05:18:03.751Z,166.09
2023-06-10T05:19:06.303Z,165.91
2023-06-10T05:20:03.684Z,166.12
2023-06-10T05:21:03.720Z,166.40
2023-06-10T05:22:03.765Z,166.64
2023-06-10T05:23:03.789Z,167.40
2023-06-10T05:24:03.885Z,168.83
2023-06-10T05:25:03.843Z,169.73
2023-06-10T05:26:03.858Z,167.34
2023-06-10T05:27:03.902Z,168.74
2023-06-10T05:28:03.944Z,171.57
2023-06-10T05:29:03.966Z,169.04
2023-06-10T05:30:03.989Z,168.71
2023-06-10T05:31:04.026Z,171.51
2023-06-10T05:32:04.221Z,171.20
2023-06-10T05:33:04.099Z,171.25
2023-06-10T05:34:04.134Z,171.28
2023-06-10T05:35:04.128Z,171.22
2023-06-10T05:36:04.156Z,168.98
2023-06-10T05:37:04.182Z,169.11
2023-06-10T05:38:04.426Z,171.64
2023-06-10T05:39:04.258Z,169.97
2023-06-10T05:40:04.298Z,169.29
2023-06-10T05:41:04.313Z,170.84
2023-06-10T05:42:04.337Z,170.72
2023-06-10T05:43:04.423Z,170.14
2023-06-10T05:44:04.399Z,171.78
2023-06-10T05:45:04.433Z,170.18
2023-06-10T05:46:04.524Z,172.81
2023-06-10T05:47:04.543Z,170.30
2023-06-10T05:48:04.649Z,173.40
2023-06-10T05:49:04.667Z,172.86
2023-06-10T05:50:04.709Z,173.20
2023-06-10T05:51:04.764Z,174.14
2023-06-10T05:52:04.846Z,172.94
2023-06-10T05:53:04.923Z,175.85
2023-06-10T05:54:05.022Z,171.94
2023-06-10T05:55:05.037Z,173.06
2023-06-10T05:56:05.064Z,173.13
2023-06-10T05:57:05.091Z,173.63
2023-06-10T05:58:05.126Z,173.70
2023-06-10T05:59:05.166Z,174.42
2023-06-10T06:00:05.189Z,174.76
2023-06-10T06:01:05.243Z,174.02
2023-06-10T06:02:05.291Z,175.39
2023-06-10T06:03:05.387Z,175.55
2023-06-10T06:04:05.318Z,177.24
2023-06-10T06:05:05.445Z,177.97
2023-06-10T06:06:05.402Z,181.52
2023-06-10T06:07:05.407Z,179.80
2023-06-10T06:08:05.436Z,180.81
2023-06-10T06:09:05.474Z,179.18
2023-06-10T06:10:05.497Z,178.78
2023-06-10T06:11:05.525Z,176.48
2023-06-10T06:12:05.560Z,174.76
2023-06-10T06:13:05.597Z,172.50
2023-06-10T06:14:05.628Z,168.55
2023-06-10T06:15:05.657Z,166.43
2023-06-10T06:16:05.712Z,165.45
2023-06-10T06:17:05.706Z,165.71
2023-06-10T06:18:05.918Z,164.32
2023-06-10T06:19:05.767Z,164.70
2023-06-10T06:20:05.795Z,163.40
2023-06-10T06:21:05.840Z,162.67
2023-06-10T06:22:05.865Z,160.27
2023-06-10T06:23:05.907Z,160.75
2023-06-10T06:24:06.143Z,153.61
2023-06-10T06:25:06.012Z,154.03
2023-06-10T06:26:08.758Z,153.37
2023-06-10T06:27:06.046Z,151.56
2023-06-10T06:28:06.065Z,152.32
2023-06-10T06:29:06.063Z,149.95
2023-06-10T06:30:06.082Z,149.50
2023-06-10T06:31:06.142Z,150.18
2023-06-10T06:32:06.139Z,150.86
2023-06-10T06:33:06.262Z,152.18
2023-06-10T06:34:06.185Z,150.73
2023-06-10T06:35:06.390Z,149.32
2023-06-10T06:36:06.291Z,151.74
2023-06-10T06:37:06.306Z,151.66
2023-06-10T06:38:06.320Z,154.47
2023-06-10T06:39:06.325Z,156.28
2023-06-10T06:40:06.322Z,159.00
2023-06-10T06:41:06.345Z,160.42
2023-06-10T06:42:06.419Z,159.69
2023-06-10T06:43:06.421Z,158.37
2023-06-10T06:44:06.406Z,162.24
2023-06-10T06:45:06.487Z,162.43
2023-06-10T06:46:06.452Z,165.20
2023-06-10T06:47:06.460Z,161.96
2023-06-10T06:48:06.641Z,161.61
2023-06-10T06:49:06.517Z,164.61
2023-06-10T06:50:06.578Z,165.60
2023-06-10T06:51:06.594Z,164.17
2023-06-10T06:52:06.591Z,165.03
2023-06-10T06:53:06.607Z,163.35
2023-06-10T06:54:06.648Z,162.52
2023-06-10T06:55:06.841Z,162.19
2023-06-10T06:56:06.682Z,157.46
2023-06-10T06:57:06.692Z,157.31
2023-06-10T06:58:06.712Z,152.85
2023-06-10T06:59:06.740Z,151.71
2023-06-10T07:00:06.752Z,146.55
2023-06-10T07:01:06.808Z,144.95
2023-06-10T07:02:06.805Z,139.66
2023-06-10T07:03:06.875Z,137.57
2023-06-10T07:04:06.869Z,133.35
2023-06-10T07:05:07.017Z,128.66
2023-06-10T07:06:06.866Z,124.55
2023-06-10T07:07:06.881Z,121.33
2023-06-10T07:08:06.944Z,116.38
2023-06-10T07:09:07.001Z,114.85
2023-06-10T07:10:07.085Z,111.85
2023-06-10T07:11:07.145Z,105.70
2023-06-10T07:12:07.224Z,100.32
2023-06-10T07:13:07.326Z,91.70
2023-06-10T07:14:07.384Z,87.70
2023-06-10T07:15:07.722Z,81.02
2023-06-10T07:16:07.551Z,75.54
2023-06-10T07:17:07.735Z,68.45
2023-06-10T07:18:07.765Z,66.18
2023-06-10T07:19:07.766Z,57.44
2023-06-10T07:20:07.925Z,50.85
2023-06-10T07:21:07.925Z,46.04
2023-06-10T07:22:07.964Z,40.34
2023-06-10T07:23:08.057Z,32.76
2023-06-10T07:24:08.172Z,25.26
2023-06-10T07:25:08.357Z,27.11
2023-06-10T07:26:08.246Z,25.00
2023-06-10T07:27:08.328Z,25.13
2023-06-10T07:28:08.397Z,25.28
2023-06-10T07:29:08.460Z,25.86
2023-06-10T07:30:08.530Z,25.19
2023-06-10T07:31:08.623Z,25.69
2023-06-10T07:32:08.672Z,25.14
2023-06-10T07:33:08.901Z,25.53
2023-06-10T07:34:08.780Z,25.00
2023-06-10T07:35:09.162Z,25.87
2023-06-10T07:36:08.889Z,25.76
2023-06-10T07:37:08.944Z,25.02
2023-06-10T07:38:09.011Z,25.46
2023-06-10T07:39:09.069Z,24.90
2023-06-10T07:40:09.126Z,25.66
2023-06-10T07:41:09.156Z,26.14
2023-06-10T07:42:09.206Z,26.22
2023-06-10T07:43:09.250Z,25.00
2023-06-10T07:44:09.305Z,25.13
2023-06-10T07:45:09.509Z,25.46
2023-06-10T07:46:09.412Z,25.46
2023-06-10T07:47:09.407Z,25.29
2023-06-10T07:48:09.475Z,25.30
2023-06-10T07:49:09.492Z,26.04
2023-06-10T07:50:09.549Z,26.27
2023-06-10T07:51:09.580Z,25.93
2023-06-10T07:52:09.645Z,27.28
2023-06-10T07:53:09.663Z,25.91
2023-06-10T07:54:09.691Z,25.00
2023-06-10T07:55:09.922Z,25.03
2023-06-10T07:56:09.704Z,23.40
2023-06-10T07:57:09.727Z,21.31
2023-06-10T07:58:09.724Z,20.82
2023-06-10T07:59:09.723Z,18.53
2023-06-10T08:00:09.727Z,26.73
2023-06-10T08:01:09.733Z,25.40
2023-06-10T08:02:09.736Z,25.00
2023-06-10T08:03:09.852Z,26.14
2023-06-10T08:04:09.879Z,25.59
2023-06-10T08:05:09.945Z,25.47
2023-06-10T08:06:09.766Z,25.49
2023-06-10T08:07:09.758Z,25.70
2023-06-10T08:08:09.795Z,26.27
2023-06-10T08:09:09.785Z,25.32
2023-06-10T08:10:09.822Z,25.00
2023-06-10T08:11:09.808Z,26.27
2023-06-10T08:12:09.791Z,26.43
2023-06-10T08:13:09.800Z,25.99
2023-06-10T08:14:09.786Z,26.70
2023-06-10T08:15:10.072Z,25.54
2023-06-10T08:16:09.814Z,25.00
2023-06-10T08:17:09.820Z,25.98
2023-06-10T08:18:09.987Z,26.78
2023-06-10T08:19:09.885Z,25.43
2023-06-10T08:20:09.923Z,25.49
2023-06-10T08:21:09.932Z,26.23
2023-06-10T08:22:09.961Z,26.05
2023-06-10T08:23:10.029Z,25.74
2023-06-10T08:24:10.054Z,25.94
2023-06-10T08:25:10.295Z,25.94
2023-06-10T08:26:10.048Z,26.86
2023-06-10T08:27:10.090Z,26.36
2023-06-10T08:28:10.119Z,24.88
2023-06-10T08:29:10.133Z,26.53
2023-06-10T08:30:10.140Z,25.40
2023-06-10T08:31:10.184Z,27.88
2023-06-10T08:32:10.237Z,26.70
2023-06-10T08:33:10.304Z,25.77
2023-06-10T08:34:10.242Z,26.53
2023-06-10T08:35:10.556Z,25.13
2023-06-10T08:36:10.256Z,25.08
2023-06-10T08:37:10.281Z,24.37
2023-06-10T08:38:10.296Z,24.92
2023-06-10T08:39:10.257Z,25.78
2023-06-10T08:40:10.254Z,25.18
2023-06-10T08:41:10.266Z,25.05
2023-06-10T08:42:10.268Z,26.43
2023-06-10T08:43:10.262Z,27.78
2023-06-10T08:44:10.282Z,25.28
2023-06-10T08:45:10.566Z,25.74
2023-06-10T08:46:10.278Z,26.02
2023-06-10T08:47:10.312Z,27.73
2023-06-10T08:48:10.462Z,27.25
2023-06-10T08:49:10.353Z,30.03
2023-06-10T08:50:12.609Z,31.52
2023-06-10T08:51:10.333Z,34.00
2023-06-10T08:52:10.319Z,34.02
2023-06-10T08:53:10.346Z,39.14
2023-06-10T08:54:10.312Z,41.70
2023-06-10T08:55:10.440Z,52.31
2023-06-10T08:56:10.339Z,54.76
2023-06-10T08:57:10.363Z,55.01
2023-06-10T08:58:10.388Z,56.66
2023-06-10T08:59:10.393Z,60.80
2023-06-10T09:00:10.545Z,67.84
2023-06-10T09:01:10.377Z,78.35
2023-06-10T09:02:10.384Z,81.90
2023-06-10T09:03:10.413Z,85.07
2023-06-10T09:04:10.348Z,88.07
2023-06-10T09:05:10.347Z,93.06
2023-06-10T09:06:10.360Z,93.11
2023-06-10T09:07:10.349Z,93.79
2023-06-10T09:08:10.428Z,95.31
2023-06-10T09:09:10.317Z,99.09
2023-06-10T09:10:10.556Z,104.88
2023-06-10T09:11:10.318Z,107.75
2023-06-10T09:12:10.343Z,111.52
2023-06-10T09:13:10.403Z,115.58
2023-06-10T09:14:10.393Z,118.46
2023-06-10T09:15:10.386Z,121.33
2023-06-10T09:16:10.407Z,123.35
2023-06-10T09:17:10.398Z,126.67
2023-06-10T09:18:10.439Z,130.13
2023-06-10T09:19:10.387Z,133.01
2023-06-10T09:20:10.907Z,136.54
2023-06-10T09:21:10.389Z,138.78
2023-06-10T09:22:10.403Z,138.93
2023-06-10T09:23:10.303Z,139.50
2023-06-10T09:24:10.354Z,141.54
2023-06-10T09:25:10.493Z,144.53
2023-06-10T09:26:10.753Z,151.65
2023-06-10T09:27:10.262Z,154.74
2023-06-10T09:28:10.266Z,157.69
2023-06-10T09:29:10.256Z,159.73
2023-06-10T09:30:10.534Z,163.74
2023-06-10T09:31:10.403Z,165.98
2023-06-10T09:32:10.781Z,168.02
2023-06-10T09:33:10.350Z,170.41
2023-06-10T09:34:10.212Z,174.08
2023-06-10T09:35:10.208Z,175.20
2023-06-10T09:36:10.201Z,176.41
2023-06-10T09:37:10.223Z,179.35
2023-06-10T09:38:10.883Z,182.24
2023-06-10T09:39:10.337Z,185.07
2023-06-10T09:40:10.638Z,185.93
2023-06-10T09:41:10.470Z,188.34
2023-06-10T09:42:10.537Z,189.32
2023-06-10T09:43:10.532Z,189.43
2023-06-10T09:44:10.533Z,190.11
2023-06-10T09:45:10.530Z,191.63
2023-06-10T09:46:10.570Z,194.96
2023-06-10T09:47:10.513Z,199.19
2023-06-10T09:48:10.566Z,201.68
2023-06-10T09:49:10.512Z,202.70
2023-06-10T09:50:11.493Z,204.38
2023-06-10T09:51:10.595Z,205.91
2023-06-10T09:52:10.527Z,207.97
2023-06-10T09:53:10.505Z,208.80
2023-06-10T09:54:10.500Z,210.86
2023-06-10T09:55:10.543Z,212.52
2023-06-10T09:56:11.145Z,214.09
2023-06-10T09:57:10.688Z,215.38
2023-06-10T09:58:10.639Z,216.96
2023-06-10T09:59:10.669Z,218.22
2023-06-10T10:00:11.093Z,218.77
2023-06-10T10:01:10.804Z,220.32
2023-06-10T10:02:11.409Z,221.40
2023-06-10T10:03:11.016Z,222.75
2023-06-10T10:04:10.942Z,224.26
2023-06-10T10:05:11.220Z,224.78
2023-06-10T10:06:11.020Z,226.83
2023-06-10T10:07:10.993Z,226.88
2023-06-10T10:08:11.034Z,227.19
2023-06-10T10:09:11.062Z,228.17
2023-06-10T10:10:11.002Z,229.90
2023-06-10T10:11:11.012Z,231.72
2023-06-10T10:12:10.972Z,234.04
2023-06-10T10:13:10.971Z,234.24
2023-06-10T10:14:11.053Z,236.24
2023-06-10T10:15:11.193Z,237.70
2023-06-10T10:16:11.010Z,237.25
2023-06-10T10:17:11.165Z,238.87
2023-06-10T10:18:11.200Z,239.74
2023-06-10T10:19:11.107Z,240.33
2023-06-10T10:20:11.155Z,242.09
2023-06-10T10:21:11.204Z,242.61
2023-06-10T10:22:11.232Z,243.20
2023-06-10T10:23:11.229Z,243.16
2023-06-10T10:24:11.381Z,244.23
2023-06-10T10:25:11.604Z,244.46
2023-06-10T10:26:11.272Z,246.27
2023-06-10T10:27:11.288Z,246.34
2023-06-10T10:28:11.320Z,246.42
2023-06-10T10:29:11.269Z,246.83
2023-06-10T10:30:11.309Z,247.54
2023-06-10T10:31:11.309Z,248.83
2023-06-10T10:32:11.359Z,250.84
2023-06-10T10:33:11.476Z,249.42
2023-06-10T10:34:11.341Z,249.67
2023-06-10T10:35:11.575Z,248.73
2023-06-10T10:36:11.248Z,248.16
2023-06-10T10:37:11.353Z,249.71
2023-06-10T10:38:11.358Z,249.61
2023-06-10T10:39:11.339Z,249.71
2023-06-10T10:40:11.330Z,249.94
2023-06-10T10:41:11.325Z,250.56
2023-06-10T10:42:11.343Z,251.32
2023-06-10T10:43:11.340Z,252.53
2023-06-10T10:44:11.325Z,249.71
2023-06-10T10:45:11.615Z,250.00
2023-06-10T10:46:11.405Z,248.95
2023-06-10T10:47:11.309Z,248.39
2023-06-10T10:48:11.354Z,248.94
2023-06-10T10:49:11.415Z,249.83
2023-06-10T10:50:13.917Z,248.92
2023-06-10T10:51:11.449Z,249.04
2023-06-10T10:52:11.459Z,249.44
2023-06-10T10:53:11.465Z,249.64
2023-06-10T10:54:11.433Z,249.95
2023-06-10T10:55:11.556Z,249.25
2023-06-10T10:56:13.706Z,249.57
2023-06-10T10:57:11.477Z,249.62
2023-06-10T10:58:11.423Z,249.73
2023-06-10T10:59:11.436Z,250.14
2023-06-10T11:00:11.490Z,248.84
2023-06-10T11:01:11.448Z,250.02
2023-06-10T11:02:11.458Z,249.61
2023-06-10T11:03:12.241Z,248.12
2023-06-10T11:04:11.720Z,249.20
2023-06-10T11:05:11.993Z,250.00
2023-06-10T11:06:11.412Z,250.00
2023-06-10T11:07:11.430Z,249.69
2023-06-10T11:08:11.381Z,249.01
2023-06-10T11:09:11.391Z,248.04
2023-06-10T11:10:11.379Z,249.06
2023-06-10T11:11:11.367Z,249.25
2023-06-10T11:12:11.358Z,249.32
2023-06-10T11:13:11.356Z,249.37
2023-06-10T11:14:11.354Z,249.47
2023-06-10T11:15:11.605Z,250.47
2023-06-10T11:16:11.358Z,249.55
2023-06-10T11:17:11.353Z,247.38
2023-06-10T11:18:11.323Z,247.49
2023-06-10T11:19:11.300Z,247.57
2023-06-10T11:20:11.278Z,248.31
2023-06-10T11:21:11.285Z,248.16
2023-06-10T11:22:11.296Z,247.69
2023-06-10T11:23:11.255Z,249.79
2023-06-10T11:24:11.407Z,248.99
2023-06-10T11:25:11.496Z,248.44
2023-06-10T11:26:11.361Z,247.38
2023-06-10T11:27:11.402Z,248.51
2023-06-10T11:28:11.498Z,248.50
2023-06-10T11:29:11.486Z,248.80
2023-06-10T11:30:11.517Z,248.46
2023-06-10T11:31:11.664Z,248.83
2023-06-10T11:32:11.664Z,249.58
2023-06-10T11:33:11.755Z,247.87
2023-06-10T11:34:11.703Z,248.39
2023-06-10T11:35:12.179Z,249.29
2023-06-10T11:36:11.746Z,249.57
2023-06-10T11:37:11.775Z,247.48
2023-06-10T11:38:11.835Z,249.46
2023-06-10T11:39:11.854Z,248.59
2023-06-10T11:40:11.926Z,248.97
2023-06-10T11:41:11.917Z,249.09
2023-06-10T11:42:11.949Z,248.94
2023-06-10T11:43:11.993Z,248.50
2023-06-10T11:44:12.057Z,248.68
2023-06-10T11:45:12.314Z,248.49
2023-06-10T11:46:12.143Z,247.20
2023-06-10T11:47:12.169Z,247.86
2023-06-10T11:48:12.210Z,248.54
2023-06-10T11:49:12.232Z,249.15
2023-06-10T11:50:12.278Z,250.20
2023-06-10T11:51:12.312Z,249.12
2023-06-10T11:52:12.364Z,248.67
2023-06-10T11:53:12.390Z,247.23
2023-06-10T11:54:12.429Z,248.36
2023-06-10T11:55:12.788Z,248.40
2023-06-10T11:56:12.426Z,248.43
2023-06-10T11:57:12.394Z,248.57
2023-06-10T11:58:12.386Z,248.94
2023-06-10T11:59:12.381Z,249.24
2023-06-10T12:00:12.344Z,248.62
2023-06-10T12:01:13.310Z,248.87
2023-06-10T12:02:12.428Z,248.72
2023-06-10T12:03:12.394Z,248.60
2023-06-10T12:04:12.333Z,248.72
2023-06-10T12:05:12.659Z,249.43
2023-06-10T12:06:12.271Z,249.48
2023-06-10T12:07:12.266Z,249.70
2023-06-10T12:08:12.285Z,249.25
2023-06-10T12:09:22.760Z,248.17
2023-06-10T12:10:26.840Z,249.49
2023-06-10T12:11:13.196Z,249.55
2023-06-10T12:12:12.181Z,249.62
2023-06-10T12:13:12.157Z,249.95
2023-06-10T12:14:12.148Z,250.34
2023-06-10T12:15:12.442Z,250.37
2023-06-10T12:16:12.174Z,248.99
2023-06-10T12:17:12.105Z,248.25
2023-06-10T12:18:12.115Z,248.67
2023-06-10T12:19:12.078Z,247.33
2023-06-10T12:20:12.058Z,248.98
2023-06-10T12:21:12.028Z,247.44
2023-06-10T12:22:12.008Z,247.54
2023-06-10T12:23:12.000Z,247.65
2023-06-10T12:24:12.050Z,248.16
2023-06-10T12:25:12.673Z,248.96
2023-06-10T12:26:11.958Z,249.30
2023-06-10T12:27:11.936Z,249.39
2023-06-10T12:28:11.934Z,248.62
2023-06-10T12:29:11.902Z,249.18
2023-06-10T12:30:11.884Z,247.39
2023-06-10T12:31:11.845Z,249.26
2023-06-10T12:32:11.925Z,247.71
2023-06-10T12:33:11.932Z,246.96